Time;durP1;ratioP1;P1;durP2;ratioP2;P2;SDS_P1;SDS_P2;PMS_P1;PMS_P2;Temp;Humidity;BMP_temperature;BMP_pressure;BME280_temperature;BME280_humidity;BME280_pressure;Samples;Min_cycle;Max_cycle;Signal;HPM_P1;HPM_P2
2022/09/27 00:02:06;;;;;;;;;;;11.20;90.30;;;;;;5010685;28;19960;-82
2022/09/27 00:04:31;;;;;;;;;;;11.10;90.10;;;;;;4993384;28;19914;-83
2022/09/27 00:06:57;;;;;;;;;;;11.10;90.60;;;;;;5006452;28;19914;-83
2022/09/27 00:09:22;;;;;;;;;;;11.10;90.30;;;;;;5003086;28;20004;-83
2022/09/27 00:11:48;;;;;;;;;;;11.10;90.10;;;;;;5015125;28;19952;-83
2022/09/27 00:14:14;;;;;;;;;;;11.00;90.20;;;;;;5005156;28;19914;-83
2022/09/27 00:16:40;;;;;;;;;;;11.00;90.20;;;;;;4999434;28;20032;-83
2022/09/27 00:19:07;;;;;;;;;;;11.10;89.90;;;;;;4993019;28;19989;-82
2022/09/27 00:21:33;;;;;;;;;;;11.00;89.90;;;;;;5000672;28;19931;-83
2022/09/27 00:23:58;;;;;;;;;;;11.00;90.00;;;;;;5000292;28;19909;-83
2022/09/27 00:26:24;;;;;;;;;;;11.00;90.10;;;;;;5013458;28;19917;-83
2022/09/27 00:28:50;;;;;;;;;;;11.00;90.00;;;;;;5014314;28;19913;-83
2022/09/27 00:31:23;;;;;;;;;;;11.00;90.10;;;;;;4992653;28;19917;-83
2022/09/27 00:33:49;;;;;;;;;;;11.10;90.20;;;;;;5005909;28;20295;-83
2022/09/27 00:36:16;;;;;;;;;;;11.00;90.30;;;;;;5010530;28;20393;-83
2022/09/27 00:38:41;;;;;;;;;;;11.00;90.60;;;;;;4995019;28;19931;-83
2022/09/27 00:41:12;;;;;;;;;;;11.10;90.40;;;;;;5000852;28;19913;-84
2022/09/27 00:43:45;;;;;;;;;;;11.10;89.90;;;;;;4986784;28;20398;-83
2022/09/27 00:46:12;;;;;;;;;;;11.10;89.90;;;;;;5002519;28;20028;-83
2022/09/27 00:48:38;;;;;;;;;;;11.00;90.50;;;;;;5003275;28;19914;-83
2022/09/27 00:51:05;;;;;;;;;;;11.10;90.00;;;;;;4990640;28;19965;-84
2022/09/27 00:53:35;;;;;;;;;;;11.00;90.30;;;;;;5010988;28;20004;-84
2022/09/27 00:56:03;;;;;;;;;;;11.00;90.00;;;;;;4985693;28;20499;-84
2022/09/27 00:58:31;;;;;;;;;;;10.90;89.90;;;;;;5001999;28;19914;-84
2022/09/27 01:01:00;;;;;;;;;;;10.90;90.30;;;;;;5012799;28;19913;-84
2022/09/27 01:03:45;;;;;;;;;;;10.80;90.10;;;;;;5015693;28;19917;-84
2022/09/27 01:06:11;;;;;;;;;;;10.80;90.40;;;;;;5000380;28;20287;-84
2022/09/27 01:08:37;;;;;;;;;;;10.80;90.30;;;;;;5002585;28;19933;-84
2022/09/27 01:11:21;;;;;;;;;;;10.80;90.20;;;;;;5017889;28;20418;-84
2022/09/27 01:13:54;;;;;;;;;;;10.80;90.00;;;;;;5010075;28;19921;-84
2022/09/27 01:16:19;;;;;;;;;;;10.80;90.10;;;;;;5009727;28;20003;-83
2022/09/27 01:18:54;;;;;;;;;;;10.80;90.30;;;;;;4987562;28;20146;-84
2022/09/27 01:21:26;;;;;;;;;;;10.80;90.40;;;;;;4986462;28;20407;-83
2022/09/27 01:24:09;;;;;;;;;;;10.90;90.50;;;;;;4987004;28;20442;-84
2022/09/27 01:26:38;;;;;;;;;;;10.90;90.50;;;;;;4999058;28;20007;-84
2022/09/27 01:29:04;;;;;;;;;;;11.00;90.20;;;;;;5002836;28;19918;-84
2022/09/27 01:31:35;;;;;;;;;;;11.00;89.70;;;;;;4986408;28;19914;-84
2022/09/27 01:34:03;;;;;;;;;;;10.90;89.70;;;;;;4998099;28;20002;-84
2022/09/27 01:36:38;;;;;;;;;;;10.90;89.70;;;;;;4996012;28;19927;-84
2022/09/27 01:39:23;;;;;;;;;;;10.90;89.90;;;;;;5009228;28;19914;-84
2022/09/27 01:41:59;;;;;;;;;;;10.80;90.00;;;;;;5011321;28;19922;-84
2022/09/27 01:44:32;;;;;;;;;;;10.80;90.30;;;;;;5016220;28;19940;-84
2022/09/27 01:47:00;;;;;;;;;;;10.90;90.50;;;;;;5009777;28;19936;-84
2022/09/27 01:49:28;;;;;;;;;;;10.90;90.30;;;;;;5011203;28;19925;-84
2022/09/27 01:51:59;;;;;;;;;;;10.90;90.10;;;;;;5002735;28;19955;-84
2022/09/27 01:54:27;;;;;;;;;;;10.90;89.60;;;;;;5010950;28;20272;-83
2022/09/27 01:56:54;;;;;;;;;;;10.90;89.60;;;;;;5012304;28;19922;-84
2022/09/27 01:59:24;;;;;;;;;;;10.80;89.90;;;;;;4994878;28;19914;-84
2022/09/27 02:01:51;;;;;;;;;;;10.90;90.20;;;;;;5009128;28;19960;-84
2022/09/27 02:04:19;;;;;;;;;;;10.90;90.00;;;;;;4985703;28;19913;-84
2022/09/27 02:06:47;;;;;;;;;;;10.80;90.20;;;;;;5012121;28;19956;-84
2022/09/27 02:09:23;;;;;;;;;;;10.80;90.50;;;;;;4991412;28;19939;-84
2022/09/27 02:11:51;;;;;;;;;;;10.90;90.20;;;;;;5010824;28;19968;-84
2022/09/27 02:14:40;;;;;;;;;;;10.80;89.90;;;;;;4998185;28;19913;-84
2022/09/27 02:17:10;;;;;;;;;;;10.80;90.10;;;;;;4980383;28;19960;-85
2022/09/27 02:19:36;;;;;;;;;;;10.80;90.00;;;;;;5020090;28;19918;-84
2022/09/27 02:22:16;;;;;;;;;;;10.80;89.70;;;;;;5003201;28;19914;-84
2022/09/27 02:24:45;;;;;;;;;;;10.80;89.80;;;;;;4996702;28;19909;-84
2022/09/27 02:27:13;;;;;;;;;;;10.70;90.10;;;;;;5001857;28;19944;-84
2022/09/27 02:29:46;;;;;;;;;;;10.80;90.10;;;;;;5019379;28;20299;-84
2022/09/27 02:32:11;;;;;;;;;;;10.80;89.90;;;;;;5006027;28;19909;-84
2022/09/27 02:34:38;;;;;;;;;;;10.70;89.80;;;;;;5011324;28;19924;-84
2022/09/27 02:37:04;;;;;;;;;;;10.70;90.10;;;;;;5062695;22;19925;-83
2022/09/27 02:39:30;;;;;;;;;;;10.80;89.60;;;;;;5057721;28;20279;-83
2022/09/27 02:41:58;;;;;;;;;;;10.70;89.80;;;;;;5062320;28;19974;-82
2022/09/27 02:44:25;;;;;;;;;;;10.70;90.10;;;;;;5057269;28;19912;-82
2022/09/27 02:46:53;;;;;;;;;;;10.80;89.90;;;;;;5049203;28;19936;-82
2022/09/27 02:49:37;;;;;;;;;;;10.80;90.00;;;;;;5034223;28;19913;-81
2022/09/27 02:52:12;;;;;;;;;;;10.80;89.40;;;;;;5039502;28;19913;-82
2022/09/27 02:54:46;;;;;;;;;;;10.80;88.90;;;;;;5029434;28;19917;-82
2022/09/27 02:57:21;;;;;;;;;;;10.80;88.90;;;;;;5037478;28;19921;-81
2022/09/27 02:59:47;;;;;;;;;;;10.70;89.20;;;;;;5017448;28;20364;-83
2022/09/27 03:02:22;;;;;;;;;;;10.70;89.40;;;;;;5028912;28;20062;-82
2022/09/27 03:04:52;;;;;;;;;;;10.60;89.60;;;;;;5013524;28;19924;-82
2022/09/27 03:07:17;;;;;;;;;;;10.60;89.70;;;;;;5035696;28;19949;-82
2022/09/27 03:09:48;;;;;;;;;;;10.70;90.00;;;;;;5036364;28;19995;-82
2022/09/27 03:12:13;;;;;;;;;;;10.70;89.40;;;;;;5019616;28;19913;-82
2022/09/27 03:14:39;;;;;;;;;;;10.70;89.10;;;;;;5017464;28;20381;-82
2022/09/27 03:17:05;;;;;;;;;;;10.70;89.00;;;;;;5015984;28;19913;-82
2022/09/27 03:19:31;;;;;;;;;;;10.60;89.30;;;;;;5010441;28;19913;-81
2022/09/27 03:21:56;;;;;;;;;;;10.60;89.40;;;;;;5031721;28;19917;-82
2022/09/27 03:24:21;;;;;;;;;;;10.60;89.60;;;;;;5019976;28;20336;-80
2022/09/27 03:26:47;;;;;;;;;;;10.60;89.40;;;;;;5009923;28;19919;-80
2022/09/27 03:29:12;;;;;;;;;;;10.60;89.50;;;;;;5012079;28;19935;-81
2022/09/27 03:31:38;;;;;;;;;;;10.50;89.70;;;;;;5029300;28;19924;-81
2022/09/27 03:34:04;;;;;;;;;;;10.50;89.60;;;;;;5013734;28;20054;-81
2022/09/27 03:36:29;;;;;;;;;;;10.60;89.70;;;;;;5013656;28;20296;-82
2022/09/27 03:38:55;;;;;;;;;;;10.50;89.80;;;;;;5032589;28;19932;-82
2022/09/27 03:41:20;;;;;;;;;;;10.50;89.90;;;;;;5033810;28;19913;-81
2022/09/27 03:43:46;;;;;;;;;;;10.50;89.80;;;;;;5014082;28;19913;-82
2022/09/27 03:46:11;;;;;;;;;;;10.50;89.50;;;;;;5031428;28;20626;-79
2022/09/27 03:48:37;;;;;;;;;;;10.50;89.70;;;;;;5013119;28;19933;-81
2022/09/27 03:51:03;;;;;;;;;;;10.40;89.50;;;;;;5032088;28;19952;-80
2022/09/27 03:53:31;;;;;;;;;;;10.40;89.30;;;;;;5011368;28;20369;-81
2022/09/27 03:55:57;;;;;;;;;;;10.40;89.30;;;;;;5027075;28;19996;-81
2022/09/27 03:58:23;;;;;;;;;;;10.30;89.60;;;;;;5013647;28;19913;-82
2022/09/27 04:00:48;;;;;;;;;;;10.30;89.50;;;;;;5031684;28;19914;-81
2022/09/27 04:03:13;;;;;;;;;;;10.20;89.60;;;;;;5030154;28;19913;-81
2022/09/27 04:05:39;;;;;;;;;;;10.20;90.00;;;;;;5032745;28;19917;-82
2022/09/27 04:08:05;;;;;;;;;;;10.20;90.30;;;;;;5036449;28;19929;-81
2022/09/27 04:10:30;;;;;;;;;;;10.20;89.80;;;;;;5036691;28;19929;-81
2022/09/27 04:12:56;;;;;;;;;;;10.20;89.40;;;;;;5014565;28;19917;-82
2022/09/27 04:15:21;;;;;;;;;;;10.20;89.30;;;;;;5011452;28;19921;-80
2022/09/27 04:17:47;;;;;;;;;;;10.10;89.50;;;;;;5029001;28;20423;-81
2022/09/27 04:20:12;;;;;;;;;;;10.10;89.30;;;;;;5033324;28;19921;-80
2022/09/27 04:22:40;;;;;;;;;;;10.10;89.30;;;;;;5034841;28;19913;-81
2022/09/27 04:25:05;;;;;;;;;;;10.10;89.40;;;;;;5009389;28;20015;-80
2022/09/27 04:27:31;;;;;;;;;;;10.10;89.30;;;;;;5024733;28;19978;-81
2022/09/27 04:29:56;;;;;;;;;;;10.10;89.40;;;;;;5034292;28;19917;-80
2022/09/27 04:32:22;;;;;;;;;;;10.00;89.20;;;;;;5036835;28;19909;-81
2022/09/27 04:37:31;;;;;;;;;;;10.10;89.20;;;;;;5031507;28;19924;-79
2022/09/27 04:39:57;;;;;;;;;;;10.00;89.50;;;;;;5011365;28;19928;-81
2022/09/27 04:42:22;;;;;;;;;;;10.10;89.70;;;;;;5028739;28;19959;-80
2022/09/27 04:44:48;;;;;;;;;;;10.10;89.50;;;;;;5015049;28;20364;-80
2022/09/27 04:47:13;;;;;;;;;;;10.10;89.80;;;;;;5031401;28;20311;-80
2022/09/27 04:49:39;;;;;;;;;;;10.10;89.80;;;;;;5016768;28;19972;-80
2022/09/27 04:52:04;;;;;;;;;;;10.20;90.20;;;;;;5018800;28;19920;-80
2022/09/27 04:54:30;;;;;;;;;;;10.30;89.60;;;;;;5035314;28;19913;-80
2022/09/27 04:56:56;;;;;;;;;;;10.30;89.50;;;;;;5015553;28;19921;-81
2022/09/27 04:59:21;;;;;;;;;;;10.40;89.70;;;;;;5026284;28;20447;-80
2022/09/27 05:01:49;;;;;;;;;;;10.30;89.90;;;;;;5007565;28;19917;-81
2022/09/27 05:04:14;;;;;;;;;;;10.40;89.80;;;;;;5022615;28;20316;-82
2022/09/27 05:06:40;;;;;;;;;;;10.50;89.50;;;;;;5010731;28;19913;-81
2022/09/27 05:09:05;;;;;;;;;;;10.50;89.40;;;;;;5027770;28;19920;-83
2022/09/27 05:11:30;;;;;;;;;;;10.60;89.30;;;;;;5034374;28;19927;-83
2022/09/27 05:13:56;;;;;;;;;;;10.50;89.00;;;;;;5019996;28;20396;-81
2022/09/27 05:16:22;;;;;;;;;;;10.50;88.80;;;;;;5023834;28;20004;-81
2022/09/27 05:18:47;;;;;;;;;;;10.40;89.10;;;;;;5007809;28;19921;-81
2022/09/27 05:21:13;;;;;;;;;;;10.40;88.90;;;;;;5015025;28;20321;-81
2022/09/27 05:23:38;;;;;;;;;;;10.30;89.10;;;;;;5029958;28;20293;-81
2022/09/27 05:26:04;;;;;;;;;;;10.30;89.20;;;;;;5034559;28;19936;-82
2022/09/27 05:28:31;;;;;;;;;;;10.30;89.00;;;;;;5035106;28;19920;-82
2022/09/27 05:30:57;;;;;;;;;;;10.20;89.30;;;;;;5025525;28;19917;-81
2022/09/27 05:33:23;;;;;;;;;;;10.20;89.20;;;;;;5023358;28;20830;-81
2022/09/27 05:35:55;;;;;;;;;;;10.20;89.40;;;;;;5024914;28;19917;-84
2022/09/27 05:38:21;;;;;;;;;;;10.30;89.40;;;;;;5028476;28;20365;-85
2022/09/27 05:40:49;;;;;;;;;;;10.20;89.00;;;;;;5023284;28;19913;-82
2022/09/27 05:43:14;;;;;;;;;;;10.10;89.10;;;;;;5030832;28;20258;-82
2022/09/27 05:45:40;;;;;;;;;;;10.20;89.30;;;;;;5012090;28;19913;-83
2022/09/27 05:48:06;;;;;;;;;;;10.20;89.40;;;;;;5035023;28;19909;-82
2022/09/27 05:50:31;;;;;;;;;;;10.20;89.00;;;;;;5034403;28;19917;-82
2022/09/27 05:52:57;;;;;;;;;;;10.30;88.80;;;;;;5037734;28;19944;-82
2022/09/27 05:55:22;;;;;;;;;;;10.30;89.10;;;;;;5018297;28;20012;-83
2022/09/27 05:58:01;;;;;;;;;;;10.20;89.00;;;;;;5036787;28;19971;-82
2022/09/27 06:00:27;;;;;;;;;;;10.30;88.70;;;;;;5037137;28;19917;-83
2022/09/27 06:02:57;;;;;;;;;;;10.30;88.60;;;;;;5036332;28;20265;-83
2022/09/27 06:05:23;;;;;;;;;;;10.30;88.60;;;;;;5033982;28;19913;-81
2022/09/27 06:07:49;;;;;;;;;;;10.30;88.20;;;;;;5035916;28;19910;-82
2022/09/27 06:10:15;;;;;;;;;;;10.30;88.50;;;;;;5037923;28;20113;-82
2022/09/27 06:12:41;;;;;;;;;;;10.30;88.60;;;;;;5036497;28;19917;-82
2022/09/27 06:15:07;;;;;;;;;;;10.30;88.40;;;;;;5012668;28;19975;-82
2022/09/27 06:17:36;;;;;;;;;;;10.40;88.30;;;;;;5021133;28;19913;-82
2022/09/27 06:20:01;;;;;;;;;;;10.30;88.10;;;;;;5035698;28;19955;-82
2022/09/27 06:22:27;;;;;;;;;;;10.30;87.90;;;;;;5022542;28;19917;-85
2022/09/27 06:24:52;;;;;;;;;;;10.30;87.90;;;;;;5024336;28;20377;-85
2022/09/27 06:27:18;;;;;;;;;;;10.30;87.50;;;;;;5026650;28;19920;-83
2022/09/27 06:29:43;;;;;;;;;;;10.40;87.60;;;;;;5046812;28;19913;-84
2022/09/27 06:32:09;;;;;;;;;;;10.30;87.60;;;;;;5043616;28;19913;-84
2022/09/27 06:34:35;;;;;;;;;;;10.50;87.30;;;;;;5029566;28;20651;-84
2022/09/27 06:37:00;;;;;;;;;;;10.50;87.10;;;;;;5048770;28;19936;-84
2022/09/27 06:39:26;;;;;;;;;;;10.50;87.00;;;;;;5056815;28;20375;-84
2022/09/27 06:41:56;;;;;;;;;;;10.50;86.60;;;;;;5030838;28;19902;-83
2022/09/27 06:44:23;;;;;;;;;;;10.40;86.90;;;;;;5042569;28;19914;-83
2022/09/27 06:46:49;;;;;;;;;;;10.40;86.90;;;;;;5043520;28;19909;-84
2022/09/27 06:49:14;;;;;;;;;;;10.40;86.70;;;;;;5024238;28;20452;-83
2022/09/27 06:51:41;;;;;;;;;;;10.50;86.70;;;;;;5024388;28;19914;-83
2022/09/27 06:54:06;;;;;;;;;;;10.40;87.10;;;;;;5042743;28;19909;-83
2022/09/27 06:56:31;;;;;;;;;;;10.40;87.00;;;;;;5035176;28;19921;-83
2022/09/27 07:01:42;;;;;;;;;;;10.50;86.40;;;;;;5041187;28;19939;-83
2022/09/27 07:04:10;;;;;;;;;;;10.50;86.40;;;;;;5039544;28;19979;-84
2022/09/27 07:06:36;;;;;;;;;;;10.40;87.10;;;;;;5034246;28;20326;-84
2022/09/27 07:09:02;;;;;;;;;;;10.40;86.80;;;;;;5019605;28;19920;-84
2022/09/27 07:11:28;;;;;;;;;;;10.40;86.80;;;;;;5038088;28;19916;-83
2022/09/27 07:13:55;;;;;;;;;;;10.30;87.20;;;;;;5020093;28;19913;-84
2022/09/27 07:16:21;;;;;;;;;;;10.40;86.80;;;;;;5035582;28;19953;-84
2022/09/27 07:18:47;;;;;;;;;;;10.40;87.10;;;;;;5039296;28;19920;-84
2022/09/27 07:21:16;;;;;;;;;;;10.40;86.90;;;;;;5014093;28;19913;-85
2022/09/27 07:23:41;;;;;;;;;;;10.50;86.90;;;;;;5030435;28;20004;-84
2022/09/27 07:26:07;;;;;;;;;;;10.40;86.70;;;;;;5011803;28;19917;-84
2022/09/27 07:28:33;;;;;;;;;;;10.50;86.30;;;;;;5010958;28;19967;-84
2022/09/27 07:30:59;;;;;;;;;;;10.40;86.30;;;;;;5016241;28;20056;-85
2022/09/27 07:33:25;;;;;;;;;;;10.40;86.50;;;;;;5028909;28;20392;-85
2022/09/27 07:35:53;;;;;;;;;;;10.50;86.60;;;;;;5034972;28;20040;-85
2022/09/27 07:38:18;;;;;;;;;;;10.40;86.40;;;;;;5010025;28;19917;-84
2022/09/27 07:40:44;;;;;;;;;;;10.40;86.40;;;;;;5018882;28;19917;-83
2022/09/27 07:43:11;;;;;;;;;;;10.40;85.90;;;;;;5032670;28;19913;-83
2022/09/27 07:45:36;;;;;;;;;;;10.40;85.90;;;;;;5030665;28;20275;-82
2022/09/27 07:48:11;;;;;;;;;;;10.40;85.90;;;;;;5017502;28;20386;-83
2022/09/27 07:50:37;;;;;;;;;;;10.40;86.20;;;;;;5019046;28;19920;-82
2022/09/27 07:53:03;;;;;;;;;;;10.50;85.80;;;;;;5040946;28;19937;-82
2022/09/27 07:55:29;;;;;;;;;;;10.50;85.30;;;;;;5017053;28;19922;-83
2022/09/27 07:58:06;;;;;;;;;;;10.50;85.20;;;;;;5016549;28;19967;-84
2022/09/27 08:00:31;;;;;;;;;;;10.60;85.20;;;;;;5023050;28;19973;-83
2022/09/27 08:02:57;;;;;;;;;;;10.60;85.50;;;;;;5030651;28;19925;-85
2022/09/27 08:05:22;;;;;;;;;;;10.50;85.40;;;;;;5029547;28;19921;-84
2022/09/27 08:07:52;;;;;;;;;;;10.50;84.80;;;;;;5048799;28;19940;-82
2022/09/27 08:10:18;;;;;;;;;;;10.50;84.80;;;;;;5043167;28;19936;-82
2022/09/27 08:12:44;;;;;;;;;;;10.40;85.30;;;;;;5014383;28;20380;-82
2022/09/27 08:15:09;;;;;;;;;;;10.40;85.10;;;;;;5031451;28;21153;-81
2022/09/27 08:17:35;;;;;;;;;;;10.40;85.70;;;;;;5026917;28;20004;-81
2022/09/27 08:20:05;;;;;;;;;;;10.40;85.70;;;;;;5029308;28;19966;-79
2022/09/27 08:22:30;;;;;;;;;;;10.50;85.10;;;;;;5028034;28;19913;-80
2022/09/27 08:24:56;;;;;;;;;;;10.40;85.10;;;;;;5033704;28;20499;-83
2022/09/27 08:27:21;;;;;;;;;;;10.60;85.40;;;;;;5014676;28;19920;-82
2022/09/27 08:29:47;;;;;;;;;;;10.80;84.80;;;;;;5030708;28;20663;-81
2022/09/27 08:32:12;;;;;;;;;;;10.90;84.60;;;;;;5012178;28;19913;-82
2022/09/27 08:34:38;;;;;;;;;;;11.00;84.30;;;;;;5004686;28;19917;-82
2022/09/27 08:37:04;;;;;;;;;;;11.00;84.50;;;;;;5064398;22;19924;-86
2022/09/27 08:39:30;;;;;;;;;;;11.00;84.70;;;;;;5017409;28;19916;-86
2022/09/27 08:42:11;;;;;;;;;;;11.00;84.70;;;;;;5051870;28;19897;-86
2022/09/27 08:44:54;;;;;;;;;;;11.00;84.60;;;;;;5031317;28;19913;-86
2022/09/27 08:47:22;;;;;;;;;;;10.90;84.70;;;;;;5038489;28;19912;-87
2022/09/27 08:49:53;;;;;;;;;;;11.00;85.30;;;;;;5012513;23;19933;-78
2022/09/27 08:52:26;;;;;;;;;;;11.10;84.90;;;;;;4975746;28;19956;-78
2022/09/27 08:54:52;;;;;;;;;;;11.20;84.70;;;;;;4990669;28;19916;-77
2022/09/27 08:57:18;;;;;;;;;;;11.30;84.30;;;;;;4977759;28;19918;-78
2022/09/27 08:59:51;;;;;;;;;;;11.30;83.80;;;;;;4977196;28;19950;-78
2022/09/27 09:02:23;;;;;;;;;;;11.40;83.40;;;;;;4971317;28;19993;-77
2022/09/27 09:04:51;;;;;;;;;;;11.40;82.80;;;;;;4998474;28;19913;-78
2022/09/27 09:07:35;;;;;;;;;;;11.20;82.10;;;;;;4992623;28;19910;-77
2022/09/27 09:12:45;;;;;;;;;;;11.20;83.00;;;;;;4997549;28;19914;-78
2022/09/27 09:13:12;;;;;;;;;;;11.30;82.80;;;;;;4996258;28;19914;-77
2022/09/27 09:15:53;;;;;;;;;;;11.30;82.50;;;;;;4980303;28;19918;-78
2022/09/27 09:18:21;;;;;;;;;;;11.50;82.20;;;;;;4976633;28;20080;-79
2022/09/27 09:20:49;;;;;;;;;;;11.50;81.70;;;;;;4977342;28;20335;-78
2022/09/27 09:23:27;;;;;;;;;;;11.50;81.30;;;;;;4994423;28;20012;-77
2022/09/27 09:25:55;;;;;;;;;;;11.50;81.00;;;;;;4995563;28;19914;-77
2022/09/27 09:28:39;;;;;;;;;;;11.30;80.80;;;;;;4998084;28;19914;-79
2022/09/27 09:31:09;;;;;;;;;;;11.20;80.70;;;;;;5000600;28;19913;-78
2022/09/27 09:33:37;;;;;;;;;;;11.10;81.10;;;;;;4998213;28;20024;-77
2022/09/27 09:36:12;;;;;;;;;;;11.10;81.40;;;;;;4998261;28;19937;-79
2022/09/27 09:38:47;;;;;;;;;;;11.10;82.10;;;;;;4996026;28;20316;-77
2022/09/27 09:41:28;;;;;;;;;;;11.20;82.10;;;;;;4995921;28;19917;-77
2022/09/27 09:44:00;;;;;;;;;;;11.10;82.50;;;;;;4974212;28;19926;-79
2022/09/27 09:46:38;;;;;;;;;;;11.10;83.30;;;;;;4997761;28;19957;-78
2022/09/27 09:49:25;;;;;;;;;;;11.10;83.70;;;;;;4999845;28;19981;-78
2022/09/27 09:52:11;;;;;;;;;;;11.10;83.80;;;;;;4982625;28;19925;-77
2022/09/27 09:54:39;;;;;;;;;;;11.00;84.40;;;;;;4997281;28;19921;-77
2022/09/27 09:57:27;;;;;;;;;;;11.00;84.20;;;;;;4999101;28;19922;-77
2022/09/27 09:59:57;;;;;;;;;;;11.00;84.10;;;;;;4994812;28;19909;-77
2022/09/27 10:02:22;;;;;;;;;;;11.00;83.90;;;;;;4995926;28;19914;-78
2022/09/27 10:04:48;;;;;;;;;;;11.10;85.10;;;;;;4997374;28;19913;-79
2022/09/27 10:07:15;;;;;;;;;;;11.10;84.80;;;;;;4982415;28;20350;-77
2022/09/27 10:09:40;;;;;;;;;;;11.10;85.10;;;;;;4996767;28;19968;-78
2022/09/27 10:12:06;;;;;;;;;;;11.20;85.10;;;;;;4982730;28;19910;-77
2022/09/27 10:14:32;;;;;;;;;;;11.30;85.10;;;;;;4999298;28;19910;-79
2022/09/27 10:16:59;;;;;;;;;;;11.30;84.50;;;;;;4981029;28;19918;-75
2022/09/27 10:19:29;;;;;;;;;;;11.40;83.80;;;;;;4992204;28;19925;-78
2022/09/27 10:22:09;;;;;;;;;;;11.30;83.60;;;;;;4974997;28;19918;-77
2022/09/27 10:24:52;;;;;;;;;;;11.30;83.40;;;;;;4991721;28;19925;-78
2022/09/27 10:27:17;;;;;;;;;;;11.30;84.00;;;;;;4980267;28;19922;-78
2022/09/27 10:29:43;;;;;;;;;;;11.50;83.70;;;;;;4983969;28;19910;-78
2022/09/27 10:32:23;;;;;;;;;;;11.50;83.10;;;;;;4990435;28;19914;-78
2022/09/27 10:34:50;;;;;;;;;;;11.40;83.50;;;;;;4993286;28;19968;-79
2022/09/27 10:37:17;;;;;;;;;;;11.40;83.40;;;;;;4976763;28;19945;-78
2022/09/27 10:39:43;;;;;;;;;;;11.30;83.00;;;;;;4975344;28;19944;-77
2022/09/27 10:42:28;;;;;;;;;;;11.30;84.00;;;;;;4976708;28;20275;-77
2022/09/27 10:44:54;;;;;;;;;;;11.20;84.00;;;;;;4983314;28;19917;-77
2022/09/27 10:47:21;;;;;;;;;;;11.30;84.20;;;;;;4988244;28;19914;-78
2022/09/27 10:49:47;;;;;;;;;;;11.40;84.60;;;;;;4976755;28;20365;-77
2022/09/27 10:52:23;;;;;;;;;;;11.50;83.80;;;;;;4991008;28;19996;-78
2022/09/27 10:55:14;;;;;;;;;;;11.40;84.40;;;;;;4995409;28;19921;-77
2022/09/27 10:57:40;;;;;;;;;;;11.50;84.20;;;;;;4988195;28;19917;-78
2022/09/27 11:00:18;;;;;;;;;;;11.50;84.50;;;;;;4992447;28;19932;-77
2022/09/27 11:02:50;;;;;;;;;;;11.60;83.90;;;;;;4993163;28;20314;-79
2022/09/27 11:05:26;;;;;;;;;;;11.60;83.40;;;;;;4966765;28;20382;-78
2022/09/27 11:07:53;;;;;;;;;;;11.50;83.40;;;;;;4994131;28;19980;-78
2022/09/27 11:10:30;;;;;;;;;;;11.50;83.20;;;;;;4989440;28;19913;-77
2022/09/27 11:13:05;;;;;;;;;;;11.50;83.90;;;;;;4989868;28;19914;-76
2022/09/27 11:15:36;;;;;;;;;;;11.70;83.50;;;;;;4989278;28;19920;-77
2022/09/27 11:18:10;;;;;;;;;;;11.80;83.10;;;;;;4992132;28;19913;-77
2022/09/27 11:20:41;;;;;;;;;;;12.10;83.40;;;;;;4977007;28;20393;-79
2022/09/27 11:23:33;;;;;;;;;;;12.20;82.40;;;;;;4986415;28;19922;-77
2022/09/27 11:26:07;;;;;;;;;;;12.20;81.60;;;;;;4983681;28;20008;-77
2022/09/27 11:28:36;;;;;;;;;;;12.20;82.30;;;;;;4992389;28;19917;-78
2022/09/27 11:31:02;;;;;;;;;;;12.30;81.50;;;;;;4975446;28;19952;-78
2022/09/27 11:33:40;;;;;;;;;;;12.40;80.30;;;;;;4995894;28;19945;-77
2022/09/27 11:36:17;;;;;;;;;;;12.60;80.90;;;;;;4985619;28;19953;-77
2022/09/27 11:38:51;;;;;;;;;;;12.70;79.20;;;;;;4999566;28;20401;-79
2022/09/27 11:41:29;;;;;;;;;;;12.80;78.60;;;;;;4987371;28;19917;-76
2022/09/27 11:44:06;;;;;;;;;;;12.70;77.00;;;;;;4991503;28;19961;-78
2022/09/27 11:46:34;;;;;;;;;;;12.70;76.80;;;;;;4984184;28;20406;-78
2022/09/27 11:49:07;;;;;;;;;;;12.70;76.80;;;;;;4979562;28;19917;-79
2022/09/27 11:51:32;;;;;;;;;;;12.60;77.10;;;;;;4972812;28;19917;-79
2022/09/27 11:54:03;;;;;;;;;;;12.60;77.70;;;;;;4984910;28;20397;-77
2022/09/27 11:56:37;;;;;;;;;;;12.60;77.70;;;;;;4991807;28;19918;-79
2022/09/27 11:59:05;;;;;;;;;;;12.70;77.50;;;;;;4993559;28;19921;-80
2022/09/27 12:01:38;;;;;;;;;;;12.80;77.20;;;;;;4984090;28;19918;-80
2022/09/27 12:04:22;;;;;;;;;;;12.70;76.00;;;;;;4988997;28;19914;-79
2022/09/27 12:07:06;;;;;;;;;;;12.40;75.10;;;;;;4976745;28;19914;-80
2022/09/27 12:09:35;;;;;;;;;;;12.20;76.10;;;;;;4985446;28;19981;-78
2022/09/27 12:12:00;;;;;;;;;;;12.10;76.80;;;;;;4969835;28;19913;-78
2022/09/27 12:14:34;;;;;;;;;;;12.00;77.00;;;;;;4976810;28;19929;-78
2022/09/27 12:17:02;;;;;;;;;;;12.00;77.50;;;;;;4976266;28;19918;-77
2022/09/27 12:19:31;;;;;;;;;;;12.10;77.60;;;;;;4984569;28;19990;-78
2022/09/27 12:21:58;;;;;;;;;;;12.10;76.60;;;;;;4988898;28;20289;-78
2022/09/27 12:24:24;;;;;;;;;;;12.00;77.20;;;;;;4969556;28;19942;-79
2022/09/27 12:26:51;;;;;;;;;;;12.00;77.60;;;;;;4991310;28;19921;-78
2022/09/27 12:29:32;;;;;;;;;;;12.10;77.90;;;;;;4988451;28;19948;-78
2022/09/27 12:32:05;;;;;;;;;;;12.30;78.00;;;;;;4994697;28;19914;-81
2022/09/27 12:34:46;;;;;;;;;;;12.50;76.50;;;;;;4990118;28;19914;-77
2022/09/27 12:37:17;;;;;;;;;;;12.50;75.20;;;;;;4995945;28;20291;-79
2022/09/27 12:39:42;;;;;;;;;;;12.60;75.20;;;;;;4994474;28;19933;-78
2022/09/27 12:42:23;;;;;;;;;;;12.70;74.60;;;;;;4977210;28;20326;-80
2022/09/27 12:44:50;;;;;;;;;;;12.80;74.20;;;;;;4981271;28;19921;-77
2022/09/27 12:47:23;;;;;;;;;;;12.60;74.00;;;;;;4973929;28;19921;-77
2022/09/27 12:49:51;;;;;;;;;;;12.60;73.70;;;;;;4984975;28;19928;-77
2022/09/27 12:52:24;;;;;;;;;;;12.50;74.20;;;;;;4967510;28;19941;-79
2022/09/27 12:55:04;;;;;;;;;;;12.40;75.80;;;;;;4982314;28;19967;-79
2022/09/27 12:57:47;;;;;;;;;;;12.30;76.00;;;;;;4990142;28;19917;-77
2022/09/27 13:00:31;;;;;;;;;;;12.40;76.60;;;;;;4979556;28;20009;-78
2022/09/27 13:03:02;;;;;;;;;;;12.40;76.90;;;;;;4988809;28;19910;-77
2022/09/27 13:05:37;;;;;;;;;;;12.30;76.90;;;;;;4987426;28;19922;-77
2022/09/27 13:08:18;;;;;;;;;;;12.20;77.20;;;;;;4991275;28;20312;-77
2022/09/27 13:11:04;;;;;;;;;;;12.20;76.80;;;;;;4969526;28;19972;-78
2022/09/27 13:13:30;;;;;;;;;;;12.10;76.40;;;;;;4991598;28;20280;-78
2022/09/27 13:15:57;;;;;;;;;;;12.00;77.40;;;;;;4970006;28;19918;-78
2022/09/27 13:18:33;;;;;;;;;;;11.90;78.50;;;;;;4988287;28;19980;-78
2022/09/27 13:20:58;;;;;;;;;;;11.90;79.20;;;;;;4989684;28;20377;-77
2022/09/27 13:23:28;;;;;;;;;;;11.90;80.20;;;;;;4988271;28;19921;-78
2022/09/27 13:26:06;;;;;;;;;;;11.90;81.60;;;;;;4989709;28;19940;-78
2022/09/27 13:28:36;;;;;;;;;;;12.00;82.00;;;;;;4971270;28;19913;-78
2022/09/27 13:31:06;;;;;;;;;;;12.10;81.40;;;;;;4980793;28;19919;-78
2022/09/27 13:33:32;;;;;;;;;;;12.10;81.50;;;;;;4988512;28;19914;-78
2022/09/27 13:36:19;;;;;;;;;;;12.20;81.50;;;;;;4986919;28;20020;-79
2022/09/27 13:38:52;;;;;;;;;;;12.20;81.20;;;;;;4986270;28;20255;-78
2022/09/27 13:41:18;;;;;;;;;;;12.20;81.50;;;;;;4977458;28;21025;-77
2022/09/27 13:43:55;;;;;;;;;;;12.10;81.10;;;;;;4984835;28;20016;-77
2022/09/27 13:46:22;;;;;;;;;;;12.20;80.60;;;;;;4986077;28;19914;-77
2022/09/27 13:48:51;;;;;;;;;;;12.20;80.90;;;;;;4963777;28;20212;-77
2022/09/27 13:51:19;;;;;;;;;;;12.30;80.90;;;;;;4958038;28;20020;-77
2022/09/27 13:54:06;;;;;;;;;;;12.30;80.30;;;;;;4976728;28;20362;-77
2022/09/27 13:56:45;;;;;;;;;;;12.50;80.70;;;;;;4984615;28;20427;-77
2022/09/27 13:59:30;;;;;;;;;;;12.50;79.00;;;;;;4982360;28;19980;-78
2022/09/27 14:02:09;;;;;;;;;;;12.30;78.40;;;;;;4973171;28;19917;-78
2022/09/27 14:04:40;;;;;;;;;;;12.10;77.80;;;;;;4992632;28;20016;-79
2022/09/27 14:07:09;;;;;;;;;;;12.10;78.90;;;;;;4994268;28;19914;-79
2022/09/27 14:09:37;;;;;;;;;;;12.10;77.80;;;;;;4991962;28;20008;-79
2022/09/27 14:12:07;;;;;;;;;;;12.00;77.70;;;;;;4976489;28;19917;-80
2022/09/27 14:14:33;;;;;;;;;;;12.00;78.00;;;;;;4991748;28;19925;-80
2022/09/27 14:16:59;;;;;;;;;;;12.10;77.50;;;;;;4995905;28;19918;-80
2022/09/27 14:19:26;;;;;;;;;;;12.10;76.20;;;;;;4995103;28;19965;-78
2022/09/27 14:21:52;;;;;;;;;;;12.20;76.10;;;;;;4979951;28;19924;-78
2022/09/27 14:24:20;;;;;;;;;;;12.20;75.50;;;;;;4997056;28;19914;-78
2022/09/27 14:26:46;;;;;;;;;;;12.10;75.90;;;;;;4995278;28;19914;-79
2022/09/27 14:29:15;;;;;;;;;;;12.10;75.00;;;;;;4996588;28;19928;-79
2022/09/27 14:31:41;;;;;;;;;;;12.00;75.90;;;;;;4989832;28;19936;-79
2022/09/27 14:34:07;;;;;;;;;;;12.10;75.70;;;;;;5001913;28;19909;-79
2022/09/27 14:42:47;;;;;;;;;;;12.10;74.60;;;;;;5032134;28;19944;-84